Latest Weather Observations for Halls Creek

IDW60801

Issued at 2:34 pm WST Sunday 28 August 2016 (issued every 30 minutes, with the page automatically refreshed every 10 minutes)

About weather observations | Map of weather stations | Latest weather observations for WA | Other Formats
Station Details ID: 002012 Name: HALLS CREEK AIRPORT Lat: -18.23 Lon: 127.66 Height: 422.0 m
Data from the previous 72 hours. | See also: Recent months at Halls Creek
Date/Time
WST
Temp
°C
App
Temp
°C
Dew
Point
°C
Rel
Hum
%
Delta-T
°C
Wind Press
QNH
hPa
Press
MSL
hPa
Rain since
9am
mm
Dir  Spd
km/h
Gust
km/h
Spd
kts
Gust
kts
28/02:30pm 31.2 28.2 9.4 26 12.5 NW 15 26 8 14 1011.8 - 0.0
28/02:00pm 31.5 28.8 8.9 24 12.9 WNW 13 28 7 15 1011.8 - 0.0
28/01:30pm 31.7 29.0 8.9 24 13.0 WNW 13 30 7 16 1012.2 - 0.0
28/01:00pm 31.9 30.1 9.5 25 12.9 WNW 9 19 5 10 1012.8 - 0.0
28/12:30pm 32.0 29.5 9.7 25 12.9 WNW 13 26 7 14 1013.4 - 0.0
28/12:00pm 30.9 28.9 10.0 27 12.1 NW 11 22 6 12 1013.8 1011.9 0.0
28/11:30am 30.1 28.1 10.2 29 11.5 WNW 11 26 6 14 1014.3 - 0.0
28/11:00am 29.7 27.4 10.6 30 11.1 NW 13 24 7 13 1015.1 - 0.0
28/10:30am 28.3 27.5 11.6 35 9.8 WNW 7 17 4 9 1015.6 - 0.0
28/10:00am 28.8 26.4 9.9 30 10.8 NW 13 30 7 16 1016.2 - 0.0
28/09:30am 28.6 25.9 9.1 29 11.0 NW 13 28 7 15 1016.5 - 0.0
28/09:00am 28.1 27.0 10.0 32 10.3 N 6 15 3 8 1016.9 1015.1 0.0
28/08:30am 26.6 24.8 9.5 34 9.6 N 9 17 5 9 1017.3 - 0.0
28/08:00am 25.9 24.0 6.8 29 10.2 NNE 6 11 3 6 1017.4 - 0.0
28/07:30am 23.8 21.7 3.8 27 10.0 NE 4 7 2 4 1017.4 - 0.0
28/07:00am 20.4 17.9 1.6 28 8.8 NE 4 7 2 4 1017.0 - 0.0
28/06:30am 18.2 15.9 0.7 31 7.9 NE 2 6 1 3 1016.8 - 0.0
28/06:00am 16.8 14.2 1.0 34 7.1 ENE 4 6 2 3 1016.4 1014.5 0.0
28/05:30am 16.0 13.5 1.6 37 6.5 ENE 4 6 2 3 1016.1 - 0.0
28/05:00am 16.1 13.5 0.8 35 6.8 ENE 4 6 2 3 1015.9 - 0.0
28/04:30am 16.6 13.9 0.3 33 7.2 NE 4 7 2 4 1015.8 - 0.0
28/04:00am 16.5 13.4 0.1 33 7.2 ENE 6 9 3 5 1015.6 - 0.0
28/03:30am 15.7 13.6 1.4 38 6.4 ENE 2 6 1 3 1015.6 - 0.0
28/03:00am 16.0 14.0 2.2 39 6.3 E 2 4 1 2 1015.6 1013.7 0.0
28/02:30am 17.5 15.1 2.1 35 7.1 NW 4 7 2 4 1015.6 - 0.0
28/02:00am 17.7 14.9 -0.2 29 7.9 NW 4 6 2 3 1015.4 - 0.0
28/01:30am 17.7 15.9 1.2 33 7.5 CALM 0 2 0 1 1015.2 - 0.0
28/01:00am 17.9 16.3 2.5 35 7.2 CALM 0 2 0 1 1015.3 - 0.0
28/12:30am 18.9 16.7 1.3 30 8.1 NE 2 4 1 2 1015.4 - 0.0
28/12:00am 19.2 16.8 2.4 32 7.9 ENE 4 7 2 4 1015.7 1013.8 0.0
 
Date/Time
WST
Temp
°C
App
Temp
°C
Dew
Point
°C
Rel
Hum
%
Delta-T
°C
Wind Press
QNH
hPa
Press
MSL
hPa
Rain since
9am
mm
Dir  Spd
km/h
Gust
km/h
Spd
kts
Gust
kts
27/11:30pm 19.6 17.6 2.2 31 8.2 ENE 2 4 1 2 1015.9 - 0.0
27/11:00pm 20.0 17.8 3.2 33 8.1 ENE 4 4 2 2 1016.0 - 0.0
27/10:30pm 20.7 18.3 2.1 29 8.8 ENE 4 6 2 3 1016.0 - 0.0
27/10:00pm 21.9 19.2 0.2 23 10.0 NE 4 6 2 3 1016.2 - 0.0
27/09:30pm 22.2 19.5 0.4 23 10.1 ENE 4 6 2 3 1016.2 - 0.0
27/09:00pm 22.6 19.5 0.1 22 10.4 ENE 6 7 3 4 1016.2 1014.3 0.0
27/08:30pm 22.0 19.5 1.8 26 9.6 E 4 9 2 5 - - 0.0
27/08:00pm 23.2 20.9 0.6 22 10.6 NE 2 6 1 3 1016.1 - 0.0
27/07:30pm 22.9 21.3 4.7 30 9.2 E 2 4 1 2 1016.1 - 0.0
27/07:00pm 24.6 21.9 0.5 20 11.4 NE 4 6 2 3 1015.7 - 0.0
27/06:30pm 25.4 22.8 0.7 20 11.8 NE 4 7 2 4 1015.3 - 0.0
27/06:00pm 26.3 23.8 1.8 20 12.0 NE 4 7 2 4 1014.9 1013.1 0.0
27/05:30pm 27.9 24.6 -0.9 15 13.6 NE 6 11 3 6 1014.7 - 0.0
27/05:00pm 29.2 26.3 -1.1 14 14.4 NE 4 9 2 5 1014.6 - 0.0
27/04:30pm 30.4 27.4 -2.0 12 15.3 NNE 4 7 2 4 1014.6 - 0.0
27/04:00pm 31.0 27.6 -1.8 12 15.6 ENE 6 13 3 7 1014.3 - 0.0
27/03:30pm 30.6 27.0 -2.4 11 15.5 N 7 15 4 8 1014.2 - 0.0
27/03:00pm 31.0 27.5 -2.7 11 15.8 N 6 15 3 8 1014.3 1012.4 0.0
27/02:30pm 31.6 28.1 -3.0 10 16.2 NNE 6 13 3 7 1014.6 - 0.0
27/02:00pm 30.3 26.5 -3.8 10 15.6 N 7 17 4 9 1015.1 - 0.0
27/01:30pm 30.4 26.2 -3.5 11 15.6 NNW 9 22 5 12 1015.4 - 0.0
27/01:00pm 29.9 25.8 -3.0 11 15.2 NE 9 20 5 11 1015.7 - 0.0
27/12:30pm 29.2 25.3 -4.6 11 15.1 NNE 7 19 4 10 1016.4 - 0.0
27/12:00pm 28.7 24.4 -4.5 11 14.8 NE 9 20 5 11 1016.6 1014.7 0.0
27/11:30am 27.9 23.6 -4.8 11 14.4 NE 9 26 5 14 1017.3 - 0.0
27/11:00am 27.2 22.5 -4.8 12 14.0 NNE 11 20 6 11 1018.1 - 0.0
27/10:30am 26.5 21.4 -5.3 12 13.7 NE 13 28 7 15 1018.6 - 0.0
27/10:00am 26.4 22.1 -5.0 12 13.6 NE 9 20 5 11 1019.1 - 0.0
27/09:30am 25.0 20.3 -4.9 13 12.8 ENE 11 30 6 16 1019.5 - 0.0
27/09:00am 24.4 19.3 -5.0 14 12.5 ENE 13 24 7 13 1019.5 1017.7 0.0
27/08:30am 22.8 17.3 -5.3 15 11.7 ENE 15 28 8 15 1019.4 - 0.0
27/08:00am 22.3 17.7 -4.5 16 11.3 ENE 11 26 6 14 1019.2 - 0.0
27/07:30am 20.7 17.0 -3.3 19 10.2 NE 7 17 4 9 1019.0 - 0.0
27/07:00am 19.5 16.1 -2.1 23 9.3 ENE 6 13 3 7 1018.7 - 0.0
27/06:30am 17.0 14.0 -1.9 27 8.0 E 4 9 2 5 1018.5 - 0.0
27/06:00am 15.2 12.1 -2.3 30 7.2 E 4 7 2 4 1018.2 1016.3 0.0
27/05:30am 15.5 12.1 -2.1 30 7.3 NNE 6 7 3 4 1017.8 - 0.0
27/05:00am 15.5 12.6 -1.3 31 7.1 E 4 6 2 3 1017.4 - 0.0
27/04:30am 15.4 13.0 -0.4 34 6.8 ESE 2 4 1 2 1016.9 - 0.0
27/04:00am 16.3 13.5 -0.2 32 7.2 E 4 7 2 4 1016.4 - 0.0
27/03:30am 17.6 14.2 -2.3 25 8.4 ENE 6 7 3 4 1016.2 - 0.0
27/03:00am 17.7 14.7 -2.1 26 8.4 NE 4 7 2 4 1016.1 1014.2 0.0
27/02:30am 17.5 14.4 -2.5 25 8.4 NE 4 7 2 4 1015.8 - 0.0
27/02:00am 18.1 15.0 -2.5 24 8.7 E 4 9 2 5 1015.7 - 0.0
27/01:30am 17.6 14.6 -1.9 26 8.3 NE 4 6 2 3 1015.7 - 0.0
27/01:00am 17.6 15.2 0.0 30 7.8 ENE 2 4 1 2 1015.8 - 0.0
27/12:30am 18.5 15.5 -2.1 24 8.8 E 4 7 2 4 1016.2 - 0.0
27/12:00am 18.0 15.7 0.7 31 7.8 E 2 4 1 2 1016.3 1014.4 0.0
 
Date/Time
WST
Temp
°C
App
Temp
°C
Dew
Point
°C
Rel
Hum
%
Delta-T
°C
Wind Press
QNH
hPa
Press
MSL
hPa
Rain since
9am
mm
Dir  Spd
km/h
Gust
km/h
Spd
kts
Gust
kts
26/11:30pm 18.2 15.4 -0.7 28 8.3 E 4 6 2 3 1016.6 - 0.0
26/11:00pm 18.6 15.9 0.0 28 8.3 E 4 6 2 3 1017.1 - 0.0
26/10:30pm 18.8 16.3 -0.7 27 8.6 ESE 2 4 1 2 1017.2 - 0.0
26/10:00pm 19.3 16.9 -0.1 27 8.7 ENE 2 4 1 2 1017.3 - 0.0
26/09:30pm 19.1 16.3 -0.5 26 8.7 ESE 4 9 2 5 1017.2 - 0.0
26/09:00pm 19.7 17.7 2.3 31 8.2 ESE 2 2 1 1 1017.3 1015.5 0.0
26/08:30pm 21.0 18.4 -1.7 21 10.0 ENE 2 6 1 3 1017.4 - 0.0
26/08:00pm 21.1 18.9 1.1 26 9.3 NE 2 4 1 2 1017.2 - 0.0
26/07:30pm 21.8 19.4 0.0 23 10.0 NNE 2 4 1 2 1017.1 - 0.0
26/07:00pm 22.3 20.6 1.7 25 9.8 CALM 0 4 0 2 1016.8 - 0.0
26/06:30pm 24.0 21.6 -0.4 20 11.3 N 2 6 1 3 1016.3 - 0.0
26/06:00pm 24.6 21.9 0.5 20 11.4 N 4 6 2 3 1016.0 1014.1 0.0
26/05:30pm 26.0 23.6 0.0 18 12.3 N 2 4 1 2 1015.6 - 0.0
26/05:00pm 27.8 24.5 -4.5 12 14.3 N 4 7 2 4 1015.3 - 0.0
26/04:30pm 28.6 24.9 -4.2 11 14.7 NNE 6 11 3 6 1014.8 - 0.0
26/04:00pm 29.1 25.9 -3.8 11 14.9 ENE 4 11 2 6 1014.6 - 0.0
26/03:30pm 30.0 26.7 -4.2 10 15.5 ENE 4 7 2 4 1014.3 - 0.0
26/03:00pm 29.3 25.5 -5.9 9 15.4 NNE 6 15 3 8 1014.4 1012.5 0.0
26/02:30pm 29.1 25.9 -3.2 12 14.8 E 4 11 2 6 1014.5 - 0.0
26/02:00pm 28.9 25.5 -4.9 10 15.0 NNE 4 19 2 10 1014.7 - 0.0
26/01:30pm 29.1 25.3 -5.4 10 15.2 N 6 15 3 8 1015.2 - 0.0
26/01:00pm 29.1 25.1 -5.4 10 15.2 ENE 7 19 4 10 1015.6 - 0.0
26/12:30pm 28.6 24.6 -5.9 10 15.0 E 7 24 4 13 1016.0 - 0.0
26/12:00pm 28.5 23.8 -5.1 11 14.8 ESE 11 22 6 12 1016.5 1014.6 0.0
26/11:30am 26.9 21.7 -5.7 11 14.0 E 13 26 7 14 1017.3 - 0.0
26/11:00am 26.3 21.5 -5.9 11 13.7 ENE 11 26 6 14 1017.9 - 0.0
26/10:30am 25.1 19.9 -6.7 11 13.2 E 13 24 7 13 1018.4 - 0.0
26/10:00am 24.7 20.3 -5.7 13 12.8 E 9 22 5 12 1018.8 - 0.0
26/09:30am 23.6 18.4 -5.7 14 12.2 E 13 26 7 14 1019.2 - 0.0
26/09:00am 22.1 16.5 -6.1 14 11.5 E 15 28 8 15 1019.4 1017.6 0.0
26/08:30am 21.7 16.9 -5.6 15 11.2 E 11 19 6 10 1019.2 - 0.0
26/08:00am 19.8 14.6 -6.0 17 10.3 E 13 26 7 14 1019.2 - 0.0
26/07:30am 18.7 13.5 -6.3 18 9.8 E 13 24 7 13 1019.1 - 0.0
26/07:00am 17.5 13.1 -5.7 20 9.1 ESE 9 15 5 8 1018.9 - 0.0
26/06:30am 16.0 12.0 -5.3 22 8.3 ESE 7 13 4 7 1018.6 - 0.0
26/06:00am 14.5 10.8 -4.5 26 7.4 ESE 6 9 3 5 1018.2 1016.3 0.0
26/05:30am 14.2 10.9 -4.2 27 7.2 ESE 4 9 2 5 1017.8 - 0.0
26/05:00am 14.6 10.9 -4.7 26 7.5 ESE 6 9 3 5 1017.4 - 0.0
26/04:30am 14.6 10.9 -4.7 26 7.5 SE 6 9 3 5 1017.1 - 0.0
26/04:00am 15.9 12.0 -5.0 23 8.2 ESE 7 13 4 7 1016.8 - 0.0
26/03:30am 15.7 12.4 -4.1 25 7.9 E 4 7 2 4 1016.5 - 0.0
26/03:00am 16.3 13.0 -4.2 24 8.2 ENE 4 9 2 5 1016.1 1014.2 0.0
26/02:30am 16.9 12.9 -5.6 21 8.8 E 7 11 4 6 1016.0 - 0.0
26/02:00am 17.1 13.3 -5.1 21 8.8 ESE 6 9 3 5 1016.1 - 0.0
26/01:30am 17.9 14.1 -5.2 20 9.2 ESE 6 11 3 6 1016.1 - 0.0
26/01:00am 18.7 14.3 -6.2 18 9.8 SE 9 17 5 9 1016.3 - 0.0
26/12:30am 19.4 14.5 -7.6 15 10.4 SE 11 19 6 10 1016.6 - 0.0
26/12:00am 17.2 13.9 -4.0 23 8.6 SE 4 6 2 3 1016.8 1015.0 0.0
 
Date/Time
WST
Temp
°C
App
Temp
°C
Dew
Point
°C
Rel
Hum
%
Delta-T
°C
Wind Press
QNH
hPa
Press
MSL
hPa
Rain since
9am
mm
Dir  Spd
km/h
Gust
km/h
Spd
kts
Gust
kts
25/11:30pm 17.9 14.7 -3.8 22 8.9 ESE 4 6 2 3 1016.9 - 0.0
25/11:00pm 19.2 15.3 -6.5 17 10.1 ESE 6 13 3 7 1016.9 - 0.0
25/10:30pm 20.3 15.8 -7.3 15 10.8 SSE 9 17 5 9 1016.8 - 0.0
25/10:00pm 20.9 15.9 -7.8 14 11.2 SSE 11 20 6 11 1016.7 - 0.0
25/09:30pm 20.8 16.7 -7.0 15 11.0 SSE 7 15 4 8 1016.7 - 0.0
25/09:00pm 20.0 16.3 -4.4 19 10.1 SSE 6 9 3 5 1016.6 1014.7 0.0
25/08:30pm 20.3 16.6 -4.7 18 10.3 SSE 6 9 3 5 1016.7 - 0.0
25/08:00pm 21.2 18.2 -2.1 21 10.2 SE 4 11 2 6 1016.4 - 0.0
25/07:30pm 21.8 17.7 -6.3 14 11.4 S 7 15 4 8 1016.0 - 0.0
25/07:00pm 21.9 18.9 -2.2 20 10.6 S 4 6 2 3 1015.6 - 0.0
25/06:30pm 22.7 19.5 -3.4 17 11.3 S 4 6 2 3 1015.3 - 0.0
25/06:00pm 23.0 20.6 -0.6 21 10.8 SSE 2 4 1 2 1014.8 1013.0 0.0
25/05:30pm 24.8 22.0 -0.6 18 11.8 S 4 6 2 3 1014.5 - 0.0
25/05:00pm 26.3 23.0 -4.1 13 13.4 S 4 7 2 4 1014.1 - 0.0
25/04:30pm 28.0 24.8 -3.4 12 14.2 S 4 9 2 5 1013.9 - 0.0
25/04:00pm 28.8 25.3 -6.4 9 15.2 ESE 4 9 2 5 1013.7 - 0.0
25/03:30pm 29.4 25.7 -5.0 10 15.3 SW 6 13 3 7 1013.5 - 0.0
25/03:00pm 28.7 24.8 -6.7 9 15.2 SSE 6 15 3 8 1013.6 1011.7 0.0

Other Formats:

Comma delimited format used in spreadsheet applications
http://www.bom.gov.au/fwo/IDW60801/IDW60801.94212.axf

JavaScript Object Notation format (JSON) in row-major order
http://www.bom.gov.au/fwo/IDW60801/IDW60801.94212.json